createdAt,value
2022-08-26T00:00:57.195Z,97463.59
2022-08-26T00:10:59.858Z,97458.75
2022-08-26T00:21:06.056Z,97454.38
2022-08-26T00:31:11.011Z,97441.34
2022-08-26T00:41:13.571Z,97450.66
2022-08-26T00:51:20.250Z,97462.03
2022-08-26T01:01:22.885Z,97462.91
2022-08-26T01:11:26.219Z,97457.25
2022-08-26T01:22:09.671Z,97451.78
2022-08-26T01:32:20.748Z,97456.88
2022-08-26T01:42:25.700Z,97456.03
2022-08-26T01:52:30.668Z,97460.00
2022-08-26T02:02:33.695Z,97464.63
2022-08-26T02:12:37.281Z,97468.13
2022-08-26T02:22:40.373Z,97463.28
2022-08-26T02:32:42.901Z,97480.09
2022-08-26T02:42:45.313Z,97479.13
2022-08-26T02:52:48.695Z,97483.25
2022-08-26T03:02:51.510Z,97475.63
2022-08-26T03:12:54.427Z,97462.13
2022-08-26T03:22:57.297Z,97461.56
2022-08-26T03:32:59.610Z,97465.41
2022-08-26T03:43:02.681Z,97460.59
2022-08-26T03:53:07.505Z,97464.66
2022-08-26T04:03:35.692Z,97455.50
2022-08-26T04:13:38.019Z,97456.22
2022-08-26T04:23:47.575Z,97459.88
2022-08-26T04:33:50.994Z,97451.31
2022-08-26T04:43:53.543Z,97454.34
2022-08-26T04:53:58.420Z,97470.28
2022-08-26T05:04:02.323Z,97483.53
2022-08-26T05:14:08.577Z,97495.59
2022-08-26T05:24:17.787Z,97501.63
2022-08-26T05:34:22.251Z,97509.19
2022-08-26T05:44:29.576Z,97511.22
2022-08-26T05:54:59.213Z,97522.44
2022-08-26T06:05:03.092Z,97515.75
2022-08-26T06:15:07.084Z,97529.53
2022-08-26T06:25:28.530Z,97535.31
2022-08-26T06:35:32.094Z,97534.03
2022-08-26T06:45:35.789Z,97545.47
2022-08-26T06:55:42.936Z,97558.03
2022-08-26T07:05:48.867Z,97559.72
2022-08-26T07:15:57.333Z,97556.72
2022-08-26T07:26:13.602Z,97563.91
2022-08-26T07:36:19.328Z,97570.09
2022-08-26T07:46:27.410Z,97584.97
2022-08-26T07:56:33.247Z,97581.62
2022-08-26T08:06:38.803Z,97582.88
2022-08-26T08:16:51.037Z,97590.91
2022-08-26T08:27:23.763Z,97590.75
2022-08-26T08:37:28.641Z,97595.06
2022-08-26T09:09:28.712Z,97609.41
2022-08-26T09:20:02.713Z,97605.41
2022-08-26T09:30:18.341Z,97609.72
2022-08-26T09:40:34.658Z,97610.09
2022-08-26T09:51:02.992Z,97609.91
2022-08-26T10:01:36.077Z,97604.81
2022-08-26T10:11:48.970Z,97590.91
2022-08-26T10:22:05.859Z,97590.88
2022-08-26T10:32:29.681Z,97587.78
2022-08-26T10:42:43.496Z,97578.69
2022-08-26T10:53:07.846Z,97568.97
2022-08-26T11:03:39.661Z,97556.03
2022-08-26T11:14:03.627Z,97535.00
2022-08-26T11:24:10.241Z,97534.91
2022-08-26T11:34:17.278Z,97536.47
2022-08-26T11:44:28.612Z,97528.47
2022-08-26T11:54:35.646Z,97523.97
2022-08-26T12:04:48.332Z,97529.22
2022-08-26T12:15:15.163Z,97524.84
2022-08-26T12:25:24.212Z,97517.38
2022-08-26T12:35:29.670Z,97514.16
2022-08-26T12:45:39.961Z,97516.91
2022-08-26T12:55:54.645Z,97522.16
2022-08-26T13:06:30.682Z,97532.13
2022-08-26T13:16:34.724Z,97503.06
2022-08-26T13:26:38.716Z,97501.09
2022-08-26T13:36:47.687Z,97509.06
2022-08-26T13:46:55.120Z,97511.41
2022-08-26T13:56:58.325Z,97523.25
2022-08-26T14:07:01.642Z,97489.56
2022-08-26T14:17:04.478Z,97480.78
2022-08-26T14:27:07.391Z,97486.41
2022-08-26T14:37:15.126Z,97479.16
2022-08-26T14:47:18.529Z,97459.19
2022-08-26T14:57:22.567Z,97449.03
2022-08-26T15:07:25.978Z,97461.63
2022-08-26T15:17:29.168Z,97461.38
2022-08-26T15:27:32.782Z,97439.28
2022-08-26T15:37:36.394Z,97450.94
2022-08-26T15:47:55.428Z,97444.09
2022-08-26T15:58:03.745Z,97463.37
2022-08-26T16:08:08.730Z,97467.84
2022-08-26T16:18:13.804Z,97476.22
2022-08-26T16:28:25.987Z,97478.66
2022-08-26T16:38:29.155Z,97464.59
2022-08-26T16:48:31.823Z,97450.41
2022-08-26T16:58:34.596Z,97463.87
2022-08-26T17:08:38.824Z,97484.47
2022-08-26T17:18:42.459Z,97483.22
2022-08-26T17:28:45.122Z,97502.94
2022-08-26T17:38:48.357Z,97527.34
2022-08-26T17:48:53.220Z,97558.88
2022-08-26T17:59:02.483Z,97573.41
2022-08-26T18:09:07.037Z,97550.16
2022-08-26T18:19:09.472Z,97551.84
2022-08-26T18:29:11.948Z,97550.09
2022-08-26T18:39:16.277Z,97537.09
2022-08-26T18:49:21.016Z,97541.91
2022-08-26T18:59:29.564Z,97547.63
2022-08-26T19:09:34.233Z,97548.50
2022-08-26T19:19:39.008Z,97542.72
2022-08-26T19:29:42.874Z,97540.84
2022-08-26T19:39:46.067Z,97547.37
2022-08-26T19:49:48.755Z,97555.28
2022-08-26T19:59:51.274Z,97571.69
2022-08-26T20:09:53.993Z,97572.69
2022-08-26T20:20:32.898Z,97609.09
2022-08-26T20:30:36.862Z,97606.41
2022-08-26T20:40:39.679Z,97593.28
2022-08-26T20:50:42.458Z,97603.47
2022-08-26T21:00:45.120Z,97607.25
2022-08-26T21:10:51.580Z,97595.03
2022-08-26T21:20:55.298Z,97613.50
2022-08-26T21:30:58.108Z,97623.69
2022-08-26T21:41:03.618Z,97635.25
2022-08-26T21:51:07.478Z,97616.47
2022-08-26T22:01:17.175Z,97607.78
2022-08-26T22:11:20.649Z,97613.72
2022-08-26T22:21:25.258Z,97624.56
2022-08-26T22:31:37.230Z,97625.91
2022-08-26T22:41:43.420Z,97627.38
2022-08-26T22:51:47.076Z,97633.22
2022-08-26T23:01:49.745Z,97619.34
2022-08-26T23:11:52.345Z,97613.56
2022-08-26T23:21:54.786Z,97620.97
2022-08-26T23:31:57.299Z,97628.53
2022-08-26T23:42:01.994Z,97624.53
2022-08-26T23:52:24.835Z,97618.44
